Time;durP1;ratioP1;P1;durP2;ratioP2;P2;SDS_P1;SDS_P2;PMS_P1;PMS_P2;Temp;Humidity;BMP_temperature;BMP_pressure;BME280_temperature;BME280_humidity;BME280_pressure;Samples;Min_cycle;Max_cycle;Signal;HPM_P1;HPM_P2
2023/07/31 00:01:22;;;;;;;3.83;1.80;;;15.90;1.00;;;;;;5096045;28;21059;-71
2023/07/31 00:03:49;;;;;;;3.50;2.30;;;15.90;1.00;;;;;;5096155;28;20467;-73
2023/07/31 00:06:18;;;;;;;3.33;1.90;;;15.80;1.00;;;;;;5092168;28;20532;-71
2023/07/31 00:08:47;;;;;;;4.70;2.10;;;15.80;1.00;;;;;;5099556;28;20465;-72
2023/07/31 00:11:14;;;;;;;3.83;2.50;;;15.80;1.00;;;;;;5100629;27;20477;-73
2023/07/31 00:13:43;;;;;;;4.93;3.10;;;15.80;1.00;;;;;;5098077;28;20462;-71
2023/07/31 00:16:12;;;;;;;4.90;2.50;;;15.80;1.00;;;;;;5097784;28;20476;-78
2023/07/31 00:18:39;;;;;;;2.17;1.97;;;15.80;1.00;;;;;;5100593;28;20467;-74
2023/07/31 00:21:06;;;;;;;5.33;3.03;;;15.80;1.00;;;;;;5099184;27;21039;-76
2023/07/31 00:23:34;;;;;;;2.70;1.73;;;15.80;1.00;;;;;;5098335;27;20467;-74
2023/07/31 00:26:01;;;;;;;4.87;2.37;;;15.70;1.00;;;;;;5099711;28;20462;-75
2023/07/31 00:28:30;;;;;;;3.93;2.20;;;15.70;1.00;;;;;;5101842;28;20474;-76
2023/07/31 00:30:58;;;;;;;3.17;2.30;;;15.60;1.00;;;;;;5099075;28;20524;-75
2023/07/31 00:33:25;;;;;;;5.90;2.07;;;15.60;1.00;;;;;;5104261;27;20494;-74
2023/07/31 00:35:52;;;;;;;3.40;2.63;;;15.60;1.00;;;;;;5101434;27;20442;-75
2023/07/31 00:38:19;;;;;;;3.63;2.20;;;15.60;1.00;;;;;;5098965;28;20883;-74
2023/07/31 00:40:47;;;;;;;4.30;2.30;;;15.60;1.00;;;;;;5098041;28;20561;-74
2023/07/31 00:43:15;;;;;;;4.20;2.97;;;15.70;1.00;;;;;;5094220;28;20988;-74
2023/07/31 00:45:42;;;;;;;3.23;2.87;;;15.70;1.00;;;;;;5096921;28;21112;-75
2023/07/31 00:48:09;;;;;;;4.63;2.73;;;15.70;1.00;;;;;;5102292;27;20497;-76
2023/07/31 00:50:37;;;;;;;5.80;3.10;;;15.70;1.00;;;;;;5100022;28;20507;-76
2023/07/31 00:53:05;;;;;;;4.50;3.40;;;15.80;1.00;;;;;;5097137;28;20536;-76
2023/07/31 00:55:33;;;;;;;3.80;2.40;;;15.70;1.00;;;;;;5098919;28;20467;-75
2023/07/31 00:58:03;;;;;;;3.40;2.80;;;15.80;1.00;;;;;;5098306;27;20548;-75
2023/07/31 01:00:30;;;;;;;4.03;2.97;;;15.90;1.00;;;;;;5117642;27;20464;-76
2023/07/31 01:02:58;;;;;;;3.47;2.37;;;16.00;1.00;;;;;;5118657;27;20550;-75
2023/07/31 01:05:34;;;;;;;4.33;2.57;;;16.00;1.00;;;;;;5108936;27;20454;-76
2023/07/31 01:08:09;;;;;;;3.50;2.77;;;16.20;1.00;;;;;;5117341;27;20438;-74
2023/07/31 01:10:42;;;;;;;2.70;2.50;;;16.20;1.00;;;;;;5096311;28;20640;-75
2023/07/31 01:13:11;;;;;;;6.17;3.07;;;16.30;1.00;;;;;;5097519;27;20423;-75
2023/07/31 01:15:38;;;;;;;3.60;3.00;;;16.40;1.00;;;;;;5080077;28;20454;-75
2023/07/31 01:18:05;;;;;;;3.77;2.50;;;16.50;1.00;;;;;;5117358;27;20466;-76
2023/07/31 01:20:34;;;;;;;3.37;2.30;;;16.50;1.00;;;;;;5109024;27;20455;-76
2023/07/31 01:23:36;;;;;;;5.47;3.00;;;16.50;1.00;;;;;;5116523;27;20869;-71
2023/07/31 01:26:12;;;;;;;3.50;3.20;;;16.50;1.00;;;;;;5102881;27;20889;-71
2023/07/31 01:28:48;;;;;;;3.37;2.83;;;16.50;1.00;;;;;;5095970;28;20937;-71
2023/07/31 01:31:20;;;;;;;3.07;2.83;;;16.40;1.00;;;;;;5099209;28;20892;-71
2023/07/31 01:33:49;;;;;;;3.20;2.90;;;16.40;1.00;;;;;;5098553;28;20419;-71
2023/07/31 01:36:16;;;;;;;3.60;2.93;;;16.40;1.00;;;;;;5096113;28;20463;-73
2023/07/31 01:38:43;;;;;;;4.10;3.23;;;16.40;1.00;;;;;;5094585;28;20475;-71
2023/07/31 01:41:11;;;;;;;3.80;3.00;;;16.40;1.00;;;;;;5095970;28;21010;-71
2023/07/31 01:43:39;;;;;;;3.87;3.40;;;16.40;1.00;;;;;;5094487;28;20474;-75
2023/07/31 01:46:08;;;;;;;3.40;3.10;;;16.40;1.00;;;;;;5099150;27;20463;-72
2023/07/31 01:48:36;;;;;;;3.37;3.07;;;16.40;1.00;;;;;;5097504;27;20582;-70
2023/07/31 01:51:04;;;;;;;3.70;3.17;;;16.40;1.00;;;;;;5093283;28;20467;-71
2023/07/31 01:53:33;;;;;;;3.90;3.43;;;16.40;1.00;;;;;;5095894;28;20474;-73
2023/07/31 01:56:00;;;;;;;3.87;3.47;;;16.40;1.00;;;;;;5095643;27;20462;-72
2023/07/31 01:58:28;;;;;;;4.50;2.80;;;16.40;1.00;;;;;;5094045;28;20462;-71
2023/07/31 02:00:55;;;;;;;3.17;2.90;;;16.50;1.00;;;;;;5094052;28;20502;-72
2023/07/31 02:03:23;;;;;;;4.27;3.00;;;16.50;1.00;;;;;;5095147;28;20579;-70
2023/07/31 02:05:50;;;;;;;3.40;2.93;;;16.50;1.00;;;;;;5105606;28;20446;-72
2023/07/31 02:08:22;;;;;;;5.63;3.80;;;16.50;1.00;;;;;;5094097;28;20541;-76
2023/07/31 02:10:48;;;;;;;3.90;3.50;;;16.60;1.00;;;;;;5094636;28;20576;-73
2023/07/31 02:13:15;;;;;;;4.53;3.53;;;16.60;1.00;;;;;;5096371;28;20900;-72
2023/07/31 02:15:44;;;;;;;4.27;3.90;;;16.50;1.00;;;;;;5096050;28;20457;-71
2023/07/31 02:18:10;;;;;;;3.60;3.30;;;16.50;1.00;;;;;;5095698;28;21059;-71
2023/07/31 02:20:37;;;;;;;4.70;4.00;;;16.50;1.00;;;;;;5100374;27;20458;-71
2023/07/31 02:23:04;;;;;;;4.53;3.80;;;16.40;1.00;;;;;;5094595;27;20549;-70
2023/07/31 02:25:31;;;;;;;4.80;3.80;;;16.40;1.00;;;;;;5093665;28;20462;-71
2023/07/31 02:27:58;;;;;;;7.27;4.00;;;16.40;1.00;;;;;;5096509;28;20462;-71
2023/07/31 02:30:29;;;;;;;4.90;4.50;;;16.50;1.00;;;;;;5093692;28;20451;-73
2023/07/31 02:32:57;;;;;;;4.07;3.63;;;16.50;1.00;;;;;;5091862;27;20466;-72
2023/07/31 02:35:24;;;;;;;4.30;3.90;;;16.50;1.00;;;;;;5098542;27;20482;-71
2023/07/31 02:37:52;;;;;;;6.73;5.10;;;16.60;1.00;;;;;;5094696;28;20479;-76
2023/07/31 02:40:19;;;;;;;5.93;4.30;;;16.60;1.00;;;;;;5093961;28;20450;-72
2023/07/31 02:42:45;;;;;;;4.50;4.10;;;16.60;1.00;;;;;;5097581;27;20451;-77
2023/07/31 02:45:13;;;;;;;5.33;3.70;;;16.60;1.00;;;;;;5096945;27;20462;-71
2023/07/31 02:47:40;;;;;;;3.90;3.50;;;16.60;1.00;;;;;;5096913;27;20552;-71
2023/07/31 02:50:09;;;;;;;4.23;3.70;;;16.60;1.00;;;;;;5095352;28;20494;-72
2023/07/31 02:52:36;;;;;;;4.40;3.63;;;16.60;1.00;;;;;;5099244;27;20463;-72
2023/07/31 02:55:03;;;;;;;6.70;4.33;;;16.50;1.00;;;;;;5095243;27;20530;-78
2023/07/31 02:57:31;;;;;;;4.37;3.97;;;16.50;1.00;;;;;;5097017;28;20518;-72
2023/07/31 03:00:00;;;;;;;6.63;4.53;;;16.50;1.00;;;;;;5093705;27;20458;-73
2023/07/31 03:02:26;;;;;;;5.00;4.50;;;16.40;1.00;;;;;;5093688;28;20892;-72
2023/07/31 03:04:53;;;;;;;4.93;4.43;;;16.40;1.00;;;;;;5095105;28;21023;-73
2023/07/31 03:07:22;;;;;;;5.17;4.67;;;16.50;1.00;;;;;;5117083;27;20589;-69
2023/07/31 03:09:52;;;;;;;9.07;4.60;;;16.40;1.00;;;;;;5117348;27;20890;-71
2023/07/31 03:12:19;;;;;;;5.20;4.57;;;16.40;1.00;;;;;;5109579;27;20453;-70
2023/07/31 03:14:46;;;;;;;6.20;4.97;;;16.20;1.00;;;;;;5117647;27;20574;-73
2023/07/31 03:17:13;;;;;;;7.63;5.10;;;16.20;1.00;;;;;;5104517;27;20471;-71
2023/07/31 03:19:40;;;;;;;5.33;4.83;;;16.10;1.00;;;;;;5099052;27;20541;-70
2023/07/31 03:22:08;;;;;;;7.20;5.13;;;16.00;1.00;;;;;;5106173;27;20493;-72
2023/07/31 03:24:36;;;;;;;6.67;5.97;;;16.00;1.00;;;;;;5093500;28;20462;-73
2023/07/31 03:27:03;;;;;;;7.30;5.80;;;16.00;1.00;;;;;;5096853;28;20898;-71
2023/07/31 03:29:30;;;;;;;6.90;6.30;;;16.00;1.00;;;;;;5096398;27;20553;-71
2023/07/31 03:31:57;;;;;;;6.27;5.77;;;16.00;1.00;;;;;;5092675;28;20454;-70
2023/07/31 03:34:24;;;;;;;7.80;5.90;;;16.00;1.00;;;;;;5094546;28;20522;-71
2023/07/31 03:36:54;;;;;;;6.83;5.77;;;16.00;1.00;;;;;;5094406;28;20557;-70
2023/07/31 03:39:21;;;;;;;7.20;5.80;;;16.00;1.00;;;;;;5104875;27;21029;-70
2023/07/31 03:41:49;;;;;;;7.10;6.00;;;16.00;1.00;;;;;;5107896;27;20469;-73
2023/07/31 03:44:17;;;;;;;7.60;5.90;;;16.00;1.00;;;;;;5084764;28;20465;-72
2023/07/31 03:46:44;;;;;;;8.33;6.40;;;16.00;1.00;;;;;;5103702;28;20475;-71
2023/07/31 03:49:10;;;;;;;6.20;5.60;;;16.00;1.00;;;;;;5097116;27;20872;-72
2023/07/31 03:51:37;;;;;;;7.83;5.90;;;16.00;1.00;;;;;;5115369;28;20505;-71
2023/07/31 03:54:04;;;;;;;7.70;7.00;;;16.10;1.00;;;;;;5097216;28;21008;-72
2023/07/31 03:56:31;;;;;;;6.60;6.00;;;16.10;1.00;;;;;;5098950;28;20466;-73
2023/07/31 03:59:00;;;;;;;7.27;6.47;;;16.10;1.00;;;;;;5098279;28;20455;-73
2023/07/31 04:01:27;;;;;;;5.80;5.27;;;16.00;1.00;;;;;;5099674;28;20555;-72
2023/07/31 04:03:54;;;;;;;7.20;6.50;;;16.00;1.00;;;;;;5091433;28;21052;-73
2023/07/31 04:06:21;;;;;;;8.30;6.37;;;15.90;1.00;;;;;;5092063;28;20458;-71
2023/07/31 04:08:48;;;;;;;6.33;5.70;;;15.90;1.00;;;;;;5096608;28;20550;-72
2023/07/31 04:11:15;;;;;;;6.77;5.47;;;16.00;1.00;;;;;;5097693;28;20455;-72
2023/07/31 04:13:42;;;;;;;6.13;5.63;;;16.00;1.00;;;;;;5098057;28;20458;-70
2023/07/31 04:16:10;;;;;;;6.80;5.87;;;16.00;1.00;;;;;;5094156;28;20512;-74
2023/07/31 04:18:38;;;;;;;7.37;6.60;;;16.00;1.00;;;;;;5095428;27;20482;-71
2023/07/31 04:21:05;;;;;;;6.60;6.00;;;16.10;1.00;;;;;;5096044;27;20467;-71
2023/07/31 04:23:32;;;;;;;6.03;5.53;;;16.10;1.00;;;;;;5095999;28;20486;-70
2023/07/31 04:25:58;;;;;;;6.13;5.53;;;16.20;1.00;;;;;;5096400;28;20483;-72
2023/07/31 04:28:26;;;;;;;6.50;5.90;;;16.20;1.00;;;;;;5101976;27;21090;-71
2023/07/31 04:30:53;;;;;;;5.60;5.10;;;16.20;1.00;;;;;;5095846;27;20461;-70
2023/07/31 04:33:21;;;;;;;6.40;5.77;;;16.20;1.00;;;;;;5116464;27;20478;-72
2023/07/31 04:35:52;;;;;;;5.90;5.30;;;16.30;1.00;;;;;;5104306;27;20898;-76
2023/07/31 04:38:19;;;;;;;5.87;5.37;;;16.30;1.00;;;;;;5097189;28;20458;-75
2023/07/31 04:40:46;;;;;;;6.83;5.50;;;16.30;1.00;;;;;;5095367;28;20609;-72
2023/07/31 04:43:13;;;;;;;6.90;5.00;;;16.30;1.00;;;;;;5096305;28;20454;-72
2023/07/31 04:45:43;;;;;;;5.90;4.60;;;16.30;1.00;;;;;;5095196;28;20470;-71
2023/07/31 04:48:10;;;;;;;6.07;5.23;;;16.30;1.00;;;;;;5094212;28;21007;-75
2023/07/31 04:50:38;;;;;;;6.33;5.60;;;16.30;1.00;;;;;;5096672;28;20562;-74
2023/07/31 04:53:05;;;;;;;15.87;14.20;;;16.30;1.00;;;;;;5093946;27;20815;-74
2023/07/31 04:55:32;;;;;;;5.30;4.80;;;16.30;1.00;;;;;;5096091;28;20549;-72
2023/07/31 04:57:59;;;;;;;6.10;5.20;;;16.30;1.00;;;;;;5098408;28;21019;-72
2023/07/31 05:00:26;;;;;;;5.77;5.27;;;16.20;1.00;;;;;;5097332;28;20501;-71
2023/07/31 05:02:53;;;;;;;6.30;5.47;;;16.20;1.00;;;;;;5098551;28;20497;-72
2023/07/31 05:05:20;;;;;;;6.47;5.10;;;16.20;1.00;;;;;;5096847;28;21027;-73
2023/07/31 05:07:48;;;;;;;5.03;4.53;;;16.20;1.00;;;;;;5096500;28;20489;-75
2023/07/31 05:10:15;;;;;;;6.60;5.83;;;16.30;1.00;;;;;;5096552;28;21041;-72
2023/07/31 05:12:42;;;;;;;5.63;5.10;;;16.30;1.00;;;;;;5099072;28;20508;-72
2023/07/31 05:15:10;;;;;;;5.40;4.80;;;16.40;1.00;;;;;;5097447;27;20706;-72
2023/07/31 05:17:37;;;;;;;6.37;4.90;;;16.40;1.00;;;;;;5096076;28;20524;-72
2023/07/31 05:20:05;;;;;;;5.03;4.60;;;16.40;1.00;;;;;;5093025;28;20567;-71
2023/07/31 05:22:31;;;;;;;7.50;5.60;;;16.50;1.00;;;;;;5097823;28;20552;-71
2023/07/31 05:25:00;;;;;;;6.50;5.00;;;16.50;1.00;;;;;;5096462;28;20471;-71
2023/07/31 05:27:27;;;;;;;5.10;4.43;;;16.60;1.00;;;;;;5094619;28;20505;-72
2023/07/31 05:29:54;;;;;;;5.03;4.53;;;16.40;1.00;;;;;;5103009;27;20484;-72
2023/07/31 05:32:21;;;;;;;6.70;5.20;;;16.40;1.00;;;;;;5115608;27;20560;-73
2023/07/31 05:34:47;;;;;;;5.93;4.07;;;16.50;1.00;;;;;;5103499;27;20557;-75
2023/07/31 05:37:15;;;;;;;5.30;4.80;;;16.50;1.00;;;;;;5096501;28;20435;-71
2023/07/31 05:39:42;;;;;;;4.50;4.10;;;16.50;1.00;;;;;;5096311;28;20527;-71
2023/07/31 05:42:13;;;;;;;5.63;4.73;;;16.50;1.00;;;;;;5096389;28;20475;-72
2023/07/31 05:44:39;;;;;;;7.63;4.70;;;16.50;1.00;;;;;;5095880;28;20474;-71
2023/07/31 05:47:06;;;;;;;5.80;4.60;;;16.50;1.00;;;;;;5098666;27;20774;-72
2023/07/31 05:49:33;;;;;;;6.10;4.73;;;16.50;1.00;;;;;;5093658;28;20538;-72
2023/07/31 05:52:00;;;;;;;6.63;4.57;;;16.50;1.00;;;;;;5096056;27;20491;-70
2023/07/31 05:54:27;;;;;;;5.50;4.60;;;16.50;1.00;;;;;;5096018;28;20527;-72
2023/07/31 05:56:54;;;;;;;5.53;3.80;;;16.60;1.00;;;;;;5092661;28;20538;-74
2023/07/31 05:59:23;;;;;;;7.60;4.07;;;16.60;1.00;;;;;;5092555;28;20482;-71
2023/07/31 06:01:50;;;;;;;6.83;4.37;;;16.60;1.00;;;;;;5094554;28;20466;-72
2023/07/31 06:04:17;;;;;;;5.40;4.17;;;16.60;1.00;;;;;;5097765;27;20520;-71
2023/07/31 06:06:43;;;;;;;4.63;4.03;;;16.60;1.00;;;;;;5094406;27;21277;-71
2023/07/31 06:09:11;;;;;;;5.97;4.07;;;16.50;1.00;;;;;;5099324;28;20902;-72
2023/07/31 06:11:38;;;;;;;5.70;4.37;;;16.60;1.00;;;;;;5096586;28;20463;-73
2023/07/31 06:14:05;;;;;;;6.13;3.87;;;16.70;1.00;;;;;;5094119;27;20978;-72
2023/07/31 06:16:33;;;;;;;5.33;3.70;;;16.70;1.00;;;;;;5097130;27;20528;-72
2023/07/31 06:19:00;;;;;;;5.23;3.80;;;16.70;1.00;;;;;;5093571;28;20902;-72
2023/07/31 06:21:27;;;;;;;5.83;4.77;;;16.60;1.00;;;;;;5098262;27;20450;-71
2023/07/31 06:23:54;;;;;;;5.63;4.20;;;16.70;1.00;;;;;;5097944;28;20553;-73
2023/07/31 06:26:22;;;;;;;4.40;4.00;;;16.70;1.00;;;;;;5092116;27;20535;-70
2023/07/31 06:28:49;;;;;;;6.43;3.60;;;16.80;1.00;;;;;;5094576;28;20517;-75
2023/07/31 06:31:20;;;;;;;4.73;4.20;;;16.90;1.00;;;;;;5089845;28;20455;-75
2023/07/31 06:33:48;;;;;;;6.53;4.00;;;16.80;1.00;;;;;;5091893;28;20473;-71
2023/07/31 06:36:15;;;;;;;5.03;4.03;;;16.90;1.00;;;;;;5091279;28;20451;-72
2023/07/31 06:38:42;;;;;;;4.63;4.03;;;17.00;1.00;;;;;;5093717;27;20531;-72
2023/07/31 06:41:10;;;;;;;3.63;3.30;;;17.00;1.00;;;;;;5098625;27;20490;-73
2023/07/31 06:43:37;;;;;;;5.13;4.33;;;17.00;1.00;;;;;;5098519;28;20474;-72
2023/07/31 06:46:06;;;;;;;6.40;3.90;;;17.00;1.00;;;;;;5090810;28;20544;-72
2023/07/31 06:48:33;;;;;;;4.63;3.40;;;17.10;1.00;;;;;;5098612;28;20419;-73
2023/07/31 06:51:02;;;;;;;5.77;4.20;;;17.20;1.00;;;;;;5092565;27;20450;-76
2023/07/31 06:53:29;;;;;;;5.80;4.10;;;17.20;1.00;;;;;;5096929;27;20502;-71
2023/07/31 06:55:56;;;;;;;5.60;4.53;;;17.30;1.00;;;;;;5094463;28;20542;-72
2023/07/31 06:58:23;;;;;;;4.40;4.00;;;17.30;1.00;;;;;;5095484;28;20457;-73
2023/07/31 07:00:50;;;;;;;7.07;3.83;;;17.30;1.00;;;;;;5091679;28;20481;-73
2023/07/31 07:03:18;;;;;;;4.93;3.90;;;17.20;1.00;;;;;;5094339;28;20463;-72
2023/07/31 07:05:45;;;;;;;5.00;4.50;;;17.20;1.00;;;;;;5094663;28;20467;-72
2023/07/31 07:08:16;;;;;;;5.80;3.83;;;17.30;1.00;;;;;;5095472;28;20502;-71
2023/07/31 07:10:43;;;;;;;5.27;3.97;;;17.50;1.00;;;;;;5093056;28;21044;-73
2023/07/31 07:13:12;;;;;;;4.80;4.00;;;17.50;1.00;;;;;;5095659;27;21035;-72
2023/07/31 07:15:39;;;;;;;5.83;3.30;;;17.50;1.00;;;;;;5096291;27;20507;-74
2023/07/31 07:18:07;;;;;;;6.07;3.60;;;17.40;1.00;;;;;;5096484;28;20524;-71
2023/07/31 07:20:33;;;;;;;4.60;3.70;;;17.50;1.00;;;;;;5102036;28;20457;-71
2023/07/31 07:23:01;;;;;;;4.90;3.73;;;17.50;1.00;;;;;;5102919;28;20549;-71
2023/07/31 07:25:29;;;;;;;5.07;3.97;;;17.50;1.00;;;;;;5102301;27;20549;-72
2023/07/31 07:27:56;;;;;;;4.30;3.67;;;17.50;1.00;;;;;;5100746;27;20438;-75
2023/07/31 07:30:25;;;;;;;5.70;3.60;;;17.50;1.00;;;;;;5096735;28;20841;-75
2023/07/31 07:32:53;;;;;;;4.00;3.70;;;17.60;1.00;;;;;;5098976;28;20456;-73
2023/07/31 07:35:20;;;;;;;4.80;4.10;;;17.70;1.00;;;;;;5099855;28;20458;-72
2023/07/31 07:37:50;;;;;;;6.43;3.80;;;17.80;1.00;;;;;;5100950;27;20463;-72
2023/07/31 07:40:17;;;;;;;3.80;3.50;;;17.90;1.00;;;;;;5100387;27;21257;-74
2023/07/31 07:42:46;;;;;;;4.97;4.47;;;18.10;1.00;;;;;;5100399;28;20439;-72
2023/07/31 07:45:13;;;;;;;5.70;4.60;;;18.20;1.00;;;;;;5100165;28;20453;-72
2023/07/31 07:47:42;;;;;;;5.60;3.67;;;18.40;1.00;;;;;;5099464;28;20505;-73
2023/07/31 07:50:09;;;;;;;3.83;3.53;;;18.60;1.00;;;;;;5094288;27;20847;-73
2023/07/31 07:52:37;;;;;;;3.67;3.10;;;18.70;1.00;;;;;;5101286;27;20613;-72
2023/07/31 07:55:06;;;;;;;5.53;3.57;;;19.00;1.00;;;;;;5096143;28;21038;-73
2023/07/31 07:57:33;;;;;;;4.97;3.83;;;19.20;1.00;;;;;;5096488;28;20491;-72
2023/07/31 08:00:01;;;;;;;5.30;3.87;;;19.30;1.00;;;;;;5099041;28;20473;-74
2023/07/31 08:02:28;;;;;;;4.70;3.73;;;19.10;1.00;;;;;;5096636;28;20493;-73
2023/07/31 08:04:55;;;;;;;3.57;3.27;;;19.10;1.00;;;;;;5098217;28;21001;-74
2023/07/31 08:07:22;;;;;;;4.13;3.47;;;19.00;1.00;;;;;;5101315;28;20532;-71
2023/07/31 08:09:49;;;;;;;3.93;3.63;;;19.00;1.00;;;;;;5098592;28;20908;-71
2023/07/31 08:12:16;;;;;;;5.10;4.27;;;19.00;1.00;;;;;;5101013;27;20499;-73
2023/07/31 08:14:43;;;;;;;3.90;3.60;;;19.20;1.00;;;;;;5101041;28;20507;-71
2023/07/31 08:17:11;;;;;;;3.80;3.40;;;19.30;1.00;;;;;;5097967;28;20484;-73
2023/07/31 08:19:38;;;;;;;3.27;2.70;;;19.20;1.00;;;;;;5097553;28;20488;-71
2023/07/31 08:22:05;;;;;;;4.00;2.93;;;18.90;1.00;;;;;;5096620;28;20460;-71
2023/07/31 08:24:33;;;;;;;2.77;2.50;;;18.80;1.00;;;;;;5102099;28;20449;-73
2023/07/31 08:27:00;;;;;;;2.77;2.57;;;18.70;1.00;;;;;;5096485;27;20511;-70
2023/07/31 08:29:27;;;;;;;2.97;2.60;;;18.70;1.00;;;;;;5097240;28;20503;-73
2023/07/31 08:31:54;;;;;;;3.20;2.90;;;18.80;1.00;;;;;;5098830;28;20553;-71
2023/07/31 08:34:22;;;;;;;5.10;2.90;;;18.90;1.00;;;;;;5107334;27;20841;-74
2023/07/31 08:36:49;;;;;;;2.50;2.30;;;19.00;1.00;;;;;;5113604;27;20873;-71
2023/07/31 08:39:17;;;;;;;3.27;2.97;;;18.90;1.00;;;;;;5116996;27;20455;-71
2023/07/31 08:41:44;;;;;;;3.83;3.43;;;18.80;1.00;;;;;;5118822;27;20568;-71
2023/07/31 08:44:13;;;;;;;3.07;2.70;;;18.70;1.00;;;;;;5118623;27;20459;-73
2023/07/31 08:46:41;;;;;;;3.70;2.90;;;18.60;1.00;;;;;;5121498;27;20457;-72
2023/07/31 08:49:10;;;;;;;3.37;3.07;;;18.60;1.00;;;;;;5120747;27;20454;-71
2023/07/31 08:51:39;;;;;;;3.70;3.40;;;18.50;1.00;;;;;;5120808;27;20466;-71
2023/07/31 08:54:07;;;;;;;3.47;3.17;;;18.60;1.00;;;;;;5118044;27;20459;-70
2023/07/31 08:56:35;;;;;;;3.27;2.97;;;18.70;1.00;;;;;;5117991;27;20498;-73
2023/07/31 08:59:04;;;;;;;3.63;3.20;;;18.80;1.00;;;;;;5116349;27;20500;-74
2023/07/31 09:01:34;;;;;;;3.27;3.07;;;19.00;1.00;;;;;;5120900;27;20480;-74
2023/07/31 09:04:04;;;;;;;3.07;2.60;;;19.30;1.00;;;;;;5121283;27;20460;-72
2023/07/31 09:06:32;;;;;;;2.93;2.73;;;19.60;1.00;;;;;;5117767;27;20907;-73
2023/07/31 09:09:02;;;;;;;3.83;2.93;;;19.60;1.00;;;;;;5117447;27;20979;-71
2023/07/31 09:11:30;;;;;;;4.20;3.63;;;19.50;1.00;;;;;;5118127;27;20472;-73
2023/07/31 09:14:01;;;;;;;3.80;2.60;;;19.50;1.00;;;;;;5118986;27;20451;-71
2023/07/31 09:16:31;;;;;;;4.87;3.13;;;19.60;1.00;;;;;;5116741;27;20875;-73
2023/07/31 09:19:01;;;;;;;4.03;3.20;;;19.70;1.00;;;;;;5121546;27;20938;-72
2023/07/31 09:21:28;;;;;;;3.50;2.30;;;19.80;1.00;;;;;;5120136;27;20503;-74
2023/07/31 09:23:56;;;;;;;2.77;2.40;;;19.90;1.00;;;;;;5119271;27;20466;-72
2023/07/31 09:26:34;;;;;;;2.47;2.23;;;19.80;1.00;;;;;;5118474;27;20496;-72
2023/07/31 09:29:04;;;;;;;5.20;3.50;;;19.50;1.00;;;;;;5108766;27;20816;-71
2023/07/31 09:31:41;;;;;;;2.57;2.37;;;19.50;1.00;;;;;;5116871;27;20504;-72
2023/07/31 09:34:10;;;;;;;2.00;1.90;;;19.50;1.00;;;;;;5102151;27;20461;-72
2023/07/31 09:36:42;;;;;;;2.60;2.00;;;19.50;1.00;;;;;;5111081;27;20478;-72
2023/07/31 09:39:11;;;;;;;3.73;2.07;;;19.50;1.00;;;;;;5114679;27;20519;-71
2023/07/31 09:41:39;;;;;;;2.27;2.07;;;19.40;1.00;;;;;;5107308;28;20472;-71
2023/07/31 09:44:06;;;;;;;2.73;2.40;;;19.20;1.00;;;;;;5093708;27;20512;-73
2023/07/31 09:46:36;;;;;;;2.60;1.67;;;18.90;1.00;;;;;;5094440;27;20458;-73
2023/07/31 09:49:10;;;;;;;1.77;1.67;;;18.70;1.00;;;;;;5094027;28;20482;-72
2023/07/31 09:51:39;;;;;;;3.00;1.70;;;18.50;1.00;;;;;;5095671;28;20476;-72
2023/07/31 09:54:20;;;;;;;3.40;2.10;;;18.50;1.00;;;;;;5093278;28;20845;-71
2023/07/31 09:56:51;;;;;;;6.80;4.10;;;18.60;1.00;;;;;;5093417;28;20472;-71
2023/07/31 09:59:20;;;;;;;1.57;1.13;;;18.70;1.00;;;;;;5101195;27;20458;-73
2023/07/31 10:01:49;;;;;;;2.30;1.70;;;18.90;1.00;;;;;;5097058;28;20542;-71
2023/07/31 10:04:25;;;;;;;2.07;1.50;;;19.00;1.00;;;;;;5096203;28;20449;-72
2023/07/31 10:06:55;;;;;;;2.70;1.70;;;19.20;1.00;;;;;;5088908;28;20988;-72
2023/07/31 10:09:26;;;;;;;3.80;1.60;;;19.40;1.00;;;;;;5096814;27;20876;-73
2023/07/31 10:12:03;;;;;;;2.73;2.17;;;19.60;1.00;;;;;;5094242;28;20573;-71
2023/07/31 10:14:31;;;;;;;3.63;2.60;;;19.50;1.00;;;;;;5093601;28;21068;-75
2023/07/31 10:16:59;;;;;;;4.20;2.80;;;19.70;1.00;;;;;;5096061;28;20488;-71
2023/07/31 10:19:28;;;;;;;4.03;3.20;;;20.00;1.00;;;;;;5096091;28;20770;-72
2023/07/31 10:21:56;;;;;;;3.23;2.93;;;20.10;1.00;;;;;;5094117;28;20548;-71
2023/07/31 10:24:25;;;;;;;3.27;2.90;;;20.10;1.00;;;;;;5094008;28;20834;-73
2023/07/31 10:26:58;;;;;;;3.90;2.97;;;20.20;1.00;;;;;;5092262;28;21065;-72
2023/07/31 10:29:26;;;;;;;5.63;3.40;;;20.30;1.00;;;;;;5114286;27;20897;-72
2023/07/31 10:31:54;;;;;;;5.57;3.60;;;20.20;1.00;;;;;;5106718;27;20588;-72
2023/07/31 10:34:21;;;;;;;5.63;3.37;;;20.10;1.00;;;;;;5115075;27;20449;-73
2023/07/31 10:36:49;;;;;;;4.13;3.80;;;20.00;1.00;;;;;;5117943;27;20430;-73
2023/07/31 10:39:38;;;;;;;5.27;4.00;;;19.60;1.00;;;;;;5115642;27;20469;-72
2023/07/31 10:42:13;;;;;;;4.80;4.17;;;19.50;1.00;;;;;;5102203;27;20984;-72
2023/07/31 10:44:45;;;;;;;5.80;5.30;;;19.60;1.00;;;;;;5093997;27;20456;-71
2023/07/31 10:47:16;;;;;;;5.40;4.30;;;19.60;1.00;;;;;;5097417;27;20541;-72
2023/07/31 10:49:46;;;;;;;4.70;4.30;;;19.70;1.00;;;;;;5096235;28;20885;-71
2023/07/31 10:52:15;;;;;;;5.43;4.40;;;19.70;1.00;;;;;;5094975;28;20474;-74
2023/07/31 10:54:42;;;;;;;4.40;3.90;;;19.90;1.00;;;;;;5096317;28;20557;-72
2023/07/31 10:57:22;;;;;;;7.20;5.30;;;20.40;1.00;;;;;;5092496;27;20558;-72
2023/07/31 10:59:50;;;;;;;5.07;4.10;;;21.50;1.00;;;;;;5095401;28;20984;-72
2023/07/31 11:02:30;;;;;;;6.70;4.73;;;22.50;1.00;;;;;;5093406;28;20447;-72
2023/07/31 11:05:09;;;;;;;5.03;4.53;;;23.10;1.00;;;;;;5098285;28;20461;-73
2023/07/31 11:07:49;;;;;;;4.50;3.50;;;23.10;1.00;;;;;;5094215;28;20458;-72
2023/07/31 11:10:19;;;;;;;4.60;4.07;;;23.00;1.00;;;;;;5096264;27;20454;-70
2023/07/31 11:12:48;;;;;;;5.47;3.90;;;23.10;1.00;;;;;;5092738;28;20511;-72
2023/07/31 11:15:15;;;;;;;5.13;4.63;;;23.10;1.00;;;;;;5092785;28;20923;-73
2023/07/31 11:17:42;;;;;;;4.60;3.67;;;23.30;1.00;;;;;;5093881;28;20837;-71
2023/07/31 11:20:10;;;;;;;3.60;3.27;;;23.20;1.00;;;;;;5094143;27;20471;-72
2023/07/31 11:22:37;;;;;;;4.93;3.77;;;22.90;1.00;;;;;;5096628;28;20441;-71
2023/07/31 11:25:05;;;;;;;4.47;3.83;;;22.70;1.00;;;;;;5099201;27;20468;-71
2023/07/31 11:27:39;;;;;;;5.10;3.90;;;22.60;1.00;;;;;;5093899;28;20517;-71
2023/07/31 11:30:12;;;;;;;4.37;3.90;;;22.80;1.00;;;;;;5086442;28;20455;-71
2023/07/31 11:32:39;;;;;;;4.10;3.80;;;23.10;1.00;;;;;;5105760;27;20554;-73
2023/07/31 11:35:08;;;;;;;5.13;4.13;;;23.40;1.00;;;;;;5092578;28;21002;-71
2023/07/31 11:37:42;;;;;;;6.37;4.23;;;23.60;1.00;;;;;;5095163;28;20454;-72
2023/07/31 11:40:12;;;;;;;5.47;3.10;;;23.50;1.00;;;;;;5092002;28;20588;-70
2023/07/31 11:42:40;;;;;;;4.00;3.40;;;23.30;1.00;;;;;;5095989;28;20582;-72
2023/07/31 11:45:09;;;;;;;4.53;3.30;;;23.30;1.00;;;;;;5095281;28;20474;-71
2023/07/31 11:47:38;;;;;;;3.20;2.67;;;23.20;1.00;;;;;;5093658;28;20813;-70
2023/07/31 11:50:13;;;;;;;3.70;3.40;;;22.90;1.00;;;;;;5095212;28;20470;-73
2023/07/31 11:52:44;;;;;;;3.80;3.27;;;22.80;1.00;;;;;;5089139;28;20479;-71
2023/07/31 11:55:11;;;;;;;3.90;3.50;;;22.30;1.00;;;;;;5083203;27;20477;-70
2023/07/31 11:57:40;;;;;;;7.53;3.70;;;22.20;1.00;;;;;;5093846;27;20469;-71
2023/07/31 12:00:13;;;;;;;3.97;3.17;;;22.20;1.00;;;;;;5089327;28;20456;-71
2023/07/31 12:02:40;;;;;;;6.20;3.70;;;22.10;1.00;;;;;;5094428;28;20468;-71
2023/07/31 12:05:11;;;;;;;4.50;3.60;;;22.20;1.00;;;;;;5097683;28;20493;-71
2023/07/31 12:07:45;;;;;;;3.73;3.40;;;22.10;1.00;;;;;;5096188;27;20815;-73
2023/07/31 12:10:12;;;;;;;6.00;3.90;;;21.90;1.00;;;;;;5096602;28;20842;-70
2023/07/31 12:12:39;;;;;;;4.93;3.67;;;21.80;1.00;;;;;;5096257;28;20501;-72
2023/07/31 12:15:16;;;;;;;5.70;3.63;;;21.80;1.00;;;;;;5093411;27;21319;-71
2023/07/31 12:17:43;;;;;;;4.43;3.43;;;21.80;1.00;;;;;;5100547;27;20454;-71
2023/07/31 12:20:11;;;;;;;6.87;3.63;;;21.90;1.00;;;;;;5097978;27;20975;-72
2023/07/31 12:22:38;;;;;;;5.43;3.60;;;22.00;1.00;;;;;;5096461;28;20472;-74
2023/07/31 12:25:05;;;;;;;3.67;3.30;;;22.10;1.00;;;;;;5114490;27;20525;-72
2023/07/31 12:27:35;;;;;;;4.10;3.70;;;22.10;1.00;;;;;;5115710;27;20544;-72
2023/07/31 12:30:02;;;;;;;3.50;3.20;;;22.20;1.00;;;;;;5115143;27;20513;-72
2023/07/31 12:32:33;;;;;;;3.30;3.00;;;22.40;1.00;;;;;;5116940;27;21187;-74
2023/07/31 12:35:02;;;;;;;3.37;2.93;;;22.60;1.00;;;;;;5114014;27;20915;-72
2023/07/31 12:37:32;;;;;;;3.80;3.40;;;22.70;1.00;;;;;;5115991;28;20458;-70
2023/07/31 12:40:03;;;;;;;3.50;3.20;;;22.70;1.00;;;;;;5116084;27;20461;-72
2023/07/31 12:42:32;;;;;;;4.90;3.93;;;22.90;1.00;;;;;;5116828;27;20458;-70
2023/07/31 12:44:59;;;;;;;3.30;2.90;;;23.30;1.00;;;;;;5115846;27;20503;-71
2023/07/31 12:47:26;;;;;;;4.13;3.17;;;23.30;1.00;;;;;;5118118;27;20466;-71
2023/07/31 12:49:54;;;;;;;4.47;3.40;;;23.20;1.00;;;;;;5117962;27;20458;-72
2023/07/31 12:52:22;;;;;;;3.80;3.20;;;23.10;1.00;;;;;;5116015;27;20991;-71
2023/07/31 12:54:48;;;;;;;5.67;3.47;;;23.10;1.00;;;;;;5115878;27;20832;-70
2023/07/31 12:57:15;;;;;;;5.43;3.77;;;23.50;1.00;;;;;;5117817;27;20530;-72
2023/07/31 12:59:43;;;;;;;2.63;2.43;;;24.20;1.00;;;;;;5117612;27;20460;-72
2023/07/31 13:02:10;;;;;;;4.43;3.30;;;24.30;1.00;;;;;;5114367;27;20507;-72
2023/07/31 13:04:37;;;;;;;2.90;2.70;;;24.30;1.00;;;;;;5117777;27;20999;-72